Time;durP1;ratioP1;P1;durP2;ratioP2;P2;SDS_P1;SDS_P2;PMS_P1;PMS_P2;Temp;Humidity;BMP_temperature;BMP_pressure;BME280_temperature;BME280_humidity;BME280_pressure;Samples;Min_cycle;Max_cycle;Signal;HPM_P1;HPM_P2
2021/06/30 00:01:16;;;;;;;7.63;6.93;;;;;;;22.71;72.98;100837.94;5006971;28;102533;-66
2021/06/30 00:03:43;;;;;;;6.53;6.03;;;;;;;22.71;73.09;100833.22;5004700;28;103726;-65
2021/06/30 00:06:11;;;;;;;7.20;6.60;;;;;;;22.71;73.16;100835.19;5005623;28;102699;-65
2021/06/30 00:08:39;;;;;;;8.03;6.90;;;;;;;22.71;73.12;100829.63;5001903;28;102384;-65
2021/06/30 00:11:08;;;;;;;7.53;6.93;;;;;;;22.71;73.21;100832.41;5010048;28;102864;-65
2021/06/30 00:13:34;;;;;;;7.20;6.60;;;;;;;22.71;73.20;100827.66;5007810;28;103897;-65
2021/06/30 00:16:01;;;;;;;7.10;6.50;;;;;;;22.71;72.97;100827.66;5001052;28;102698;-65
2021/06/30 00:18:28;;;;;;;7.10;6.50;;;;;;;22.72;72.96;100834.84;5007882;28;102620;-65
2021/06/30 00:20:55;;;;;;;6.60;6.00;;;;;;;22.71;73.20;100837.94;5009587;28;102481;-66
2021/06/30 00:23:26;;;;;;;6.82;6.22;;;;;;;22.69;73.19;100840.28;5007472;28;104009;-66
2021/06/30 00:25:58;;;;;;;8.00;7.30;;;;;;;22.71;73.06;100838.75;5008869;28;102052;-65
2021/06/30 00:28:27;;;;;;;6.93;6.32;;;;;;;22.69;73.11;100835.53;5008192;28;102359;-65
2021/06/30 00:30:56;;;;;;;7.43;6.63;;;;;;;22.70;73.00;100830.81;5009610;28;102409;-65
2021/06/30 00:33:22;;;;;;;6.68;6.18;;;;;;;22.70;72.94;100831.59;5005172;28;104159;-65
2021/06/30 00:35:49;;;;;;;8.18;6.00;;;;;;;22.69;73.05;100830.00;5008232;28;102373;-65
2021/06/30 00:38:16;;;;;;;7.50;6.90;;;;;;;22.69;73.13;100835.53;5006943;28;102113;-65
2021/06/30 00:40:47;;;;;;;7.65;6.95;;;;;;;22.68;73.23;100824.78;5009832;28;102261;-65
2021/06/30 00:43:13;;;;;;;6.40;5.90;;;;;;;22.70;73.17;100833.56;5007572;28;104002;-65
2021/06/30 00:45:40;;;;;;;6.72;6.22;;;;;;;22.70;73.02;100837.16;5008974;28;101985;-66
2021/06/30 00:48:09;;;;;;;6.57;6.07;;;;;;;22.68;73.25;100833.91;5008030;28;102380;-66
2021/06/30 00:50:35;;;;;;;6.80;6.20;;;;;;;22.69;73.09;100830.00;5009740;28;102261;-66
2021/06/30 00:53:02;;;;;;;7.03;6.38;;;;;;;22.70;73.18;100837.16;5006582;28;104109;-65
2021/06/30 00:55:31;;;;;;;6.97;6.38;;;;;;;22.70;73.22;100830.81;5008017;28;103607;-65
2021/06/30 00:58:04;;;;;;;6.57;6.03;;;;;;;22.69;73.38;100846.63;5009150;28;103275;-65
2021/06/30 01:00:31;;;;;;;6.82;6.20;;;;;;;22.70;73.07;100841.91;5019711;28;102140;-65
2021/06/30 01:02:58;;;;;;;6.50;5.93;;;;;;;22.69;72.95;100849.41;5008826;28;103899;-66
2021/06/30 01:05:27;;;;;;;6.97;6.43;;;;;;;22.69;73.23;100846.63;5020983;27;102580;-65
2021/06/30 01:07:58;;;;;;;8.80;6.18;;;;;;;22.69;73.01;100849.41;5022962;28;102390;-66
2021/06/30 01:10:26;;;;;;;7.28;6.43;;;;;;;22.69;72.92;100852.19;5004140;28;102924;-65
2021/06/30 01:12:52;;;;;;;7.15;6.50;;;;;;;22.69;73.04;100849.41;5007021;28;103847;-66
2021/06/30 01:15:22;;;;;;;7.00;6.40;;;;;;;22.69;73.12;100849.41;5022655;27;102238;-66
2021/06/30 01:17:53;;;;;;;6.50;5.90;;;;;;;22.69;73.00;100849.41;5008974;28;102414;-65
2021/06/30 01:20:20;;;;;;;7.28;6.70;;;;;;;22.69;73.04;100849.41;5010127;28;102667;-65
2021/06/30 01:25:42;;;;;;;7.75;6.45;;;;;;;22.68;73.19;100850.56;4969371;27;102742;-65
2021/06/30 01:28:09;;;;;;;6.40;5.90;;;;;;;22.68;73.08;100839.44;4960037;27;102334;-67
2021/06/30 01:30:38;;;;;;;6.97;6.38;;;;;;;22.70;73.20;100841.91;4954732;27;102635;-65
2021/06/30 01:33:07;;;;;;;6.70;6.10;;;;;;;22.69;72.96;100841.09;4962554;27;102220;-66
2021/06/30 01:35:43;;;;;;;6.38;5.88;;;;;;;22.69;72.88;100846.63;4966372;27;102504;-66
2021/06/30 01:38:13;;;;;;;6.45;5.85;;;;;;;22.67;73.18;100842.59;4965789;27;102040;-65
2021/06/30 01:40:40;;;;;;;7.05;6.28;;;;;;;22.66;72.98;100841.78;4969965;27;104052;-66
2021/06/30 01:43:18;;;;;;;6.47;5.72;;;;;;;22.67;73.14;100837.84;4952472;27;102298;-66
2021/06/30 01:45:50;;;;;;;6.95;6.22;;;;;;;22.67;72.98;100851.72;4974168;27;102157;-65
2021/06/30 01:48:22;;;;;;;6.88;6.18;;;;;;;22.67;73.06;100842.59;4956858;27;103682;-67
2021/06/30 01:50:52;;;;;;;6.63;6.00;;;;;;;22.68;73.11;100838.66;4953754;27;103764;-66
2021/06/30 01:53:26;;;;;;;10.00;6.10;;;;;;;22.68;73.17;100846.97;4956796;27;102044;-66
2021/06/30 01:55:57;;;;;;;6.70;6.00;;;;;;;22.66;73.07;100847.34;4990523;27;102095;-66
2021/06/30 01:58:26;;;;;;;6.30;5.80;;;;;;;22.66;72.93;100855.66;4958135;27;102665;-66
2021/06/30 02:00:55;;;;;;;7.63;6.22;;;;;;;22.66;72.95;100858.44;4958575;27;103963;-65
2021/06/30 02:03:24;;;;;;;7.05;6.25;;;;;;;22.66;72.97;100858.44;4957364;27;102196;-65
2021/06/30 02:05:55;;;;;;;6.22;5.68;;;;;;;22.63;73.01;100859.13;4954763;27;102500;-65
2021/06/30 02:08:21;;;;;;;6.32;5.50;;;;;;;22.64;72.91;100859.94;4953740;27;102906;-65
2021/06/30 02:10:49;;;;;;;6.35;5.85;;;;;;;22.64;73.02;100859.94;4957628;27;103585;-65
2021/06/30 02:13:21;;;;;;;6.22;5.72;;;;;;;22.66;73.03;100858.44;4962043;27;102610;-65
2021/06/30 02:15:49;;;;;;;6.38;5.78;;;;;;;22.66;73.06;100858.44;4961134;27;102239;-65
2021/06/30 02:18:18;;;;;;;6.35;5.78;;;;;;;22.67;72.98;100859.22;4960442;27;102539;-65
2021/06/30 02:20:44;;;;;;;6.72;6.13;;;;;;;22.66;73.04;100866.75;4954616;27;103688;-65
2021/06/30 02:23:11;;;;;;;6.10;5.60;;;;;;;22.65;72.77;100867.91;4957363;27;102281;-65
2021/06/30 02:25:38;;;;;;;5.93;5.38;;;;;;;22.66;73.04;100872.31;4952852;27;102142;-65
2021/06/30 02:28:06;;;;;;;6.13;5.63;;;;;;;22.66;72.81;100863.19;4960703;28;102520;-65
2021/06/30 02:30:33;;;;;;;5.53;5.13;;;;;;;22.66;72.95;100865.94;4959690;27;103249;-65
2021/06/30 02:33:01;;;;;;;6.93;6.22;;;;;;;22.64;72.94;100876.56;4960571;27;102273;-65
2021/06/30 02:35:30;;;;;;;6.45;5.88;;;;;;;22.64;72.89;100866.28;4954228;27;102272;-65
2021/06/30 02:37:58;;;;;;;6.78;6.13;;;;;;;22.66;72.98;100863.97;4944902;27;102453;-65
2021/06/30 02:40:28;;;;;;;6.82;6.07;;;;;;;22.65;72.99;100867.91;4945417;27;104273;-65
2021/06/30 02:42:58;;;;;;;6.90;6.07;;;;;;;22.64;73.09;100869.06;4941351;27;102213;-65
2021/06/30 02:45:24;;;;;;;6.32;5.72;;;;;;;22.66;72.77;100875.06;4943118;27;102615;-65
2021/06/30 02:47:52;;;;;;;6.37;5.67;;;;;;;22.64;73.02;100874.59;4943394;27;102338;-65
2021/06/30 02:50:23;;;;;;;6.50;5.90;;;;;;;22.66;73.07;100874.28;4933710;27;104082;-65
2021/06/30 02:52:53;;;;;;;5.75;5.30;;;;;;;22.67;72.79;100876.69;4935877;27;102639;-65
2021/06/30 02:55:22;;;;;;;6.30;5.75;;;;;;;22.66;73.12;100874.28;4940847;27;102165;-65
2021/06/30 02:57:52;;;;;;;6.57;6.00;;;;;;;22.65;73.02;100870.69;4938809;27;102650;-65
2021/06/30 03:00:25;;;;;;;5.75;5.18;;;;;;;22.66;72.98;100874.28;4960133;27;104152;-65
2021/06/30 03:02:52;;;;;;;6.22;5.72;;;;;;;22.67;73.12;100878.66;4930152;27;102616;-65
2021/06/30 03:05:23;;;;;;;5.90;5.40;;;;;;;22.67;73.21;100870.34;4937698;27;102427;-65
2021/06/30 03:07:52;;;;;;;5.72;5.30;;;;;;;22.67;73.11;100870.34;4947469;27;102562;-65
2021/06/30 03:10:19;;;;;;;;;;;;;;;22.67;73.15;100865.59;4938852;27;104193;-65
2021/06/30 03:12:52;;;;;;;5.65;5.07;;;;;;;22.66;73.33;100863.97;4937391;27;102081;-65
2021/06/30 03:15:18;;;;;;;5.93;5.38;;;;;;;22.66;73.16;100863.97;4937481;27;102394;-65
2021/06/30 03:17:50;;;;;;;5.33;4.67;;;;;;;22.65;73.17;100867.91;4943483;27;102504;-65
2021/06/30 03:20:21;;;;;;;5.93;5.47;;;;;;;22.66;73.26;100863.97;4945978;27;103759;-65
2021/06/30 03:22:47;;;;;;;5.60;5.10;;;;;;;22.65;73.27;100865.16;4940170;27;102457;-66
2021/06/30 03:25:15;;;;;;;5.85;5.35;;;;;;;22.66;73.36;100858.44;4947189;27;102335;-66
2021/06/30 03:27:43;;;;;;;5.60;5.10;;;;;;;22.66;73.34;100869.53;4937837;28;102605;-66
2021/06/30 03:30:19;;;;;;;5.43;4.68;;;;;;;22.66;73.21;100863.19;4938968;27;104090;-65
2021/06/30 03:32:49;;;;;;;5.65;5.25;;;;;;;22.67;73.36;100860.03;4944840;27;102183;-65
2021/06/30 03:35:24;;;;;;;6.05;5.47;;;;;;;22.66;73.20;100858.44;4940079;27;102686;-65
2021/06/30 03:37:52;;;;;;;5.30;4.90;;;;;;;22.67;73.28;100864.78;4942313;27;102427;-65
2021/06/30 03:40:19;;;;;;;5.75;5.35;;;;;;;22.67;73.35;100865.59;4944897;27;103887;-66
2021/06/30 03:42:46;;;;;;;5.43;5.03;;;;;;;22.67;73.08;100871.13;4940394;27;102526;-65
2021/06/30 03:45:12;;;;;;;6.18;5.57;;;;;;;22.66;73.19;100863.97;4945117;27;102441;-65
2021/06/30 03:47:43;;;;;;;5.87;5.37;;;;;;;22.67;73.28;100871.13;4934620;28;102586;-65
2021/06/30 03:50:10;;;;;;;5.53;5.13;;;;;;;22.67;73.35;100871.13;4948521;28;103914;-65
2021/06/30 03:52:38;;;;;;;4.70;4.40;;;;;;;22.68;73.10;100872.75;4937299;27;102424;-65
2021/06/30 03:55:06;;;;;;;5.80;5.30;;;;;;;22.68;73.20;100856.09;4942712;27;102284;-65
2021/06/30 03:57:33;;;;;;;5.33;4.83;;;;;;;22.69;73.26;100852.19;4942210;27;102292;-65
2021/06/30 04:00:00;;;;;;;5.40;5.00;;;;;;;22.69;73.33;100862.47;4945829;27;104115;-65
2021/06/30 04:02:34;;;;;;;5.70;5.20;;;;;;;22.69;73.23;100865.25;4947130;27;102148;-65
2021/06/30 04:05:00;;;;;;;5.82;5.32;;;;;;;22.70;73.54;100864.09;4946799;27;102044;-65
2021/06/30 04:07:27;;;;;;;5.38;4.95;;;;;;;22.71;73.21;100849.06;4934394;27;102660;-65
2021/06/30 04:09:55;;;;;;;5.05;4.65;;;;;;;22.70;73.21;100848.25;4941646;27;103896;-65
2021/06/30 04:12:24;;;;;;;5.82;4.82;;;;;;;22.71;73.25;100838.75;4953366;27;102442;-65
2021/06/30 04:14:54;;;;;;;4.53;4.22;;;;;;;22.71;73.13;100841.53;4935430;27;102263;-65
2021/06/30 04:17:30;;;;;;;5.15;4.78;;;;;;;22.71;73.26;100849.84;4935119;27;102777;-65
2021/06/30 04:20:01;;;;;;;5.00;4.65;;;;;;;22.72;73.26;100848.72;4936887;27;104046;-66
2021/06/30 04:22:31;;;;;;;;;;;;;;;22.73;73.35;100855.88;4946712;27;102445;-65
2021/06/30 04:25:02;;;;;;;5.22;4.78;;;;;;;22.74;73.23;100849.16;4946234;27;102748;-65
2021/06/30 04:27:31;;;;;;;5.07;4.60;;;;;;;22.73;73.14;100847.56;4938336;27;101955;-65
2021/06/30 04:30:00;;;;;;;;;;;;;;;22.74;73.24;100846.38;4945258;27;103959;-65
2021/06/30 04:32:29;;;;;;;5.70;5.20;;;;;;;22.75;73.22;100850.75;4945615;27;103462;-66
2021/06/30 04:34:56;;;;;;;5.57;5.03;;;;;;;22.76;73.17;100848.81;4945974;27;102136;-65
2021/06/30 04:37:25;;;;;;;4.85;4.45;;;;;;;22.76;73.12;100846.06;4943633;27;102924;-65
2021/06/30 04:39:51;;;;;;;5.40;4.90;;;;;;;22.76;72.87;100857.16;4940930;27;103913;-65
2021/06/30 04:42:22;;;;;;;5.63;5.22;;;;;;;22.76;73.13;100852.41;4943160;27;102518;-65
2021/06/30 04:44:51;;;;;;;5.45;4.90;;;;;;;22.77;73.07;100856.78;4944999;27;102381;-65
2021/06/30 04:47:19;;;;;;;5.70;4.85;;;;;;;22.77;73.08;100862.34;4946119;27;102171;-65
2021/06/30 04:49:48;;;;;;;5.30;4.75;;;;;;;22.78;73.03;100858.38;4949614;27;103890;-65
2021/06/30 04:52:16;;;;;;;6.10;5.63;;;;;;;22.78;73.11;100855.63;4937784;27;102053;-65
2021/06/30 04:54:43;;;;;;;4.53;4.20;;;;;;;22.79;72.68;100857.25;4943465;27;103215;-65
2021/06/30 04:57:11;;;;;;;5.15;4.75;;;;;;;22.79;73.15;100864.75;4945281;27;102223;-66
2021/06/30 04:59:39;;;;;;;5.43;4.97;;;;;;;22.80;73.07;100858.06;4937609;27;104064;-65
2021/06/30 05:02:09;;;;;;;5.55;5.05;;;;;;;22.81;73.12;100865.22;4942909;27;102331;-65
2021/06/30 05:04:36;;;;;;;5.32;4.88;;;;;;;22.82;72.97;100860.47;4946406;27;102458;-65
2021/06/30 05:07:07;;;;;;;5.45;4.88;;;;;;;22.83;73.12;100864.84;4943231;27;102402;-66
2021/06/30 05:09:53;;;;;;;4.60;4.22;;;;;;;22.84;72.84;100860.94;4942446;27;104772;-66
2021/06/30 05:12:20;;;;;;;4.90;4.50;;;;;;;22.86;72.89;100872.47;4943463;27;102548;-64
2021/06/30 05:14:48;;;;;;;5.15;4.70;;;;;;;22.86;73.00;100861.38;4940541;27;102840;-65
2021/06/30 05:17:17;;;;;;;5.45;5.05;;;;;;;22.87;73.23;100868.56;4943646;27;103110;-65
2021/06/30 05:19:46;;;;;;;5.10;4.75;;;;;;;22.88;73.12;100867.41;4942500;27;103994;-66
2021/06/30 05:22:15;;;;;;;;;;;;;;;22.89;72.76;100874.56;4940710;27;102963;-65
2021/06/30 05:24:44;;;;;;;5.20;4.80;;;;;;;22.91;72.93;100873.06;4934453;27;102395;-65
2021/06/30 05:27:12;;;;;;;4.97;4.57;;;;;;;22.93;72.78;100872.72;4944629;27;102543;-66
2021/06/30 05:29:44;;;;;;;4.85;4.45;;;;;;;22.93;72.88;100875.50;4944433;27;103687;-66
2021/06/30 05:32:18;;;;;;;4.97;4.57;;;;;;;22.94;72.84;100879.91;4933129;27;102169;-65
2021/06/30 05:34:45;;;;;;;5.07;4.68;;;;;;;22.96;72.89;100872.81;4940422;28;102502;-65
2021/06/30 05:37:11;;;;;;;5.18;4.88;;;;;;;22.99;72.80;100874.09;4940415;27;103565;-65
2021/06/30 05:39:39;;;;;;;5.00;4.60;;;;;;;23.02;72.69;100870.63;4936337;27;103939;-65
2021/06/30 05:42:06;;;;;;;5.00;4.30;;;;;;;23.04;72.69;100873.84;4935650;27;102148;-65
2021/06/30 05:44:35;;;;;;;5.70;4.60;;;;;;;23.03;72.86;100870.25;4943236;27;102191;-65
2021/06/30 05:47:05;;;;;;;5.65;5.20;;;;;;;23.05;72.62;100874.69;4948231;28;103772;-66
2021/06/30 05:49:33;;;;;;;5.28;4.88;;;;;;;23.06;72.58;100876.28;4943531;27;104131;-65
2021/06/30 05:52:01;;;;;;;4.60;4.30;;;;;;;23.07;72.64;100884.25;4942762;27;102204;-65
2021/06/30 05:54:31;;;;;;;5.32;4.82;;;;;;;23.09;72.42;100881.13;4942468;27;102252;-65
2021/06/30 05:56:58;;;;;;;5.88;4.60;;;;;;;23.10;72.52;100880.78;4943117;27;102519;-65
2021/06/30 05:59:24;;;;;;;5.20;4.80;;;;;;;23.10;72.43;100886.31;4938251;27;104180;-65
2021/06/30 06:01:51;;;;;;;5.18;4.68;;;;;;;23.11;72.69;100885.16;4943297;27;105611;-65
2021/06/30 06:04:17;;;;;;;5.20;4.80;;;;;;;23.12;72.62;100886.78;4940289;27;106855;-64
2021/06/30 06:06:45;;;;;;;4.78;4.47;;;;;;;23.16;72.33;100878.56;4942698;27;102193;-65
2021/06/30 06:09:12;;;;;;;5.15;4.75;;;;;;;23.16;72.00;100882.16;4938059;28;103472;-65
2021/06/30 06:11:55;;;;;;;4.93;4.53;;;;;;;23.17;72.42;100880.97;4934919;27;102930;-65
2021/06/30 06:14:21;;;;;;;5.43;5.03;;;;;;;23.18;72.42;100884.56;4935884;27;102314;-65
2021/06/30 06:17:00;;;;;;;4.90;4.57;;;;;;;23.18;72.40;100888.13;4948174;27;102448;-65
2021/06/30 06:19:27;;;;;;;5.30;4.90;;;;;;;23.18;72.41;100879.81;4943124;27;102987;-65
2021/06/30 06:21:57;;;;;;;5.10;4.70;;;;;;;23.20;72.31;100888.59;4950884;27;102517;-65
2021/06/30 06:24:24;;;;;;;5.35;4.95;;;;;;;23.20;72.51;100882.25;4946616;27;102429;-65
2021/06/30 06:26:52;;;;;;;4.75;4.43;;;;;;;23.21;72.17;100884.66;4944873;27;102470;-65
2021/06/30 06:29:18;;;;;;;4.90;4.60;;;;;;;23.22;72.31;100889.06;4936678;27;103955;-66
2021/06/30 06:31:47;;;;;;;5.20;4.80;;;;;;;23.21;72.27;100884.66;4944856;27;102654;-65
2021/06/30 06:34:19;;;;;;;5.18;4.68;;;;;;;23.24;72.22;100888.69;4944662;27;102435;-66
2021/06/30 06:36:51;;;;;;;5.15;4.72;;;;;;;23.24;72.30;100883.94;4947368;27;102632;-66
2021/06/30 06:39:20;;;;;;;;;;;;;;;23.26;72.29;100887.19;4950479;27;103889;-65
2021/06/30 06:41:47;;;;;;;4.35;4.05;;;;;;;23.25;72.05;100885.56;4956947;27;102328;-66
2021/06/30 06:44:14;;;;;;;4.97;4.57;;;;;;;23.27;72.20;100894.34;4950268;27;103335;-66
2021/06/30 06:46:41;;;;;;;5.20;4.80;;;;;;;23.27;72.15;100888.81;4967749;27;102494;-66
2021/06/30 06:49:08;;;;;;;5.15;4.70;;;;;;;23.29;72.14;100890.41;4943806;27;103881;-66
2021/06/30 06:51:35;;;;;;;4.63;4.22;;;;;;;23.29;72.18;100877.34;4945649;27;102580;-66
2021/06/30 06:54:02;;;;;;;5.05;4.65;;;;;;;23.30;72.06;100878.13;4939951;27;102451;-67
2021/06/30 06:56:32;;;;;;;4.60;4.30;;;;;;;23.30;72.11;100876.19;4937123;27;102613;-66
2021/06/30 06:58:58;;;;;;;5.20;4.80;;;;;;;23.31;72.11;100877.00;4931932;27;104031;-66
2021/06/30 07:01:26;;;;;;;4.45;4.15;;;;;;;23.31;72.03;100866.69;4934445;27;102204;-66
2021/06/30 07:03:53;;;;;;;4.80;4.50;;;;;;;23.32;71.88;100873.06;4939439;27;102339;-66
2021/06/30 07:06:19;;;;;;;4.55;4.25;;;;;;;23.32;71.82;100871.06;4941855;28;102318;-65
2021/06/30 07:08:46;;;;;;;4.93;4.53;;;;;;;23.33;nan;100866.31;4937024;27;103976;-66
2021/06/30 07:11:13;;;;;;;5.13;4.72;;;;;;;23.34;71.98;100865.19;4939888;27;102205;-66
2021/06/30 07:13:41;;;;;;;4.75;4.38;;;;;;;23.33;72.10;100863.53;4944954;27;102508;-66
2021/06/30 07:16:11;;;;;;;4.78;4.38;;;;;;;23.35;72.28;100866.78;4941364;27;102226;-66
2021/06/30 07:18:37;;;;;;;4.63;4.32;;;;;;;23.34;71.89;100877.09;4940883;27;103878;-66
2021/06/30 07:21:05;;;;;;;5.35;4.85;;;;;;;23.35;71.87;100872.34;4939906;28;102145;-66
2021/06/30 07:23:32;;;;;;;5.03;4.70;;;;;;;23.34;71.89;100868.75;4938897;27;102286;-66
2021/06/30 07:25:59;;;;;;;4.80;4.40;;;;;;;23.36;71.97;100868.41;4937032;27;102284;-66
2021/06/30 07:28:26;;;;;;;5.10;4.70;;;;;;;23.37;71.93;100870.84;4937009;27;104106;-66
2021/06/30 07:30:54;;;;;;;5.00;4.70;;;;;;;23.38;71.89;100866.09;4950007;27;102563;-66
2021/06/30 07:33:21;;;;;;;4.70;4.40;;;;;;;23.37;71.92;100862.50;4944017;27;102388;-66
2021/06/30 07:35:47;;;;;;;5.25;4.85;;;;;;;23.39;71.93;100856.59;4945918;28;102471;-66
2021/06/30 07:38:15;;;;;;;4.90;4.60;;;;;;;23.39;72.05;100862.13;4934922;27;102653;-66
2021/06/30 07:40:41;;;;;;;4.60;4.30;;;;;;;23.39;71.71;100864.91;4944217;27;102220;-66
2021/06/30 07:43:09;;;;;;;4.93;4.43;;;;;;;23.39;71.85;100862.13;4946992;27;102349;-66
2021/06/30 07:45:35;;;;;;;4.78;4.47;;;;;;;23.40;71.83;100852.63;4951632;27;102393;-67
2021/06/30 07:48:04;;;;;;;4.88;4.47;;;;;;;23.40;71.85;100852.63;4940679;27;104145;-67
2021/06/30 07:50:31;;;;;;;4.93;4.55;;;;;;;23.41;71.89;100854.28;4959145;27;102342;-66
2021/06/30 07:52:58;;;;;;;4.60;4.30;;;;;;;23.42;71.82;100855.88;4942253;27;103636;-66
2021/06/30 07:55:25;;;;;;;4.68;4.28;;;;;;;23.42;71.96;100858.66;4945884;27;102530;-67
2021/06/30 07:57:51;;;;;;;4.68;4.38;;;;;;;23.42;71.80;100856.69;4934369;27;103996;-66
2021/06/30 08:00:20;;;;;;;4.90;4.50;;;;;;;23.43;71.88;100854.72;4936000;27;102357;-67
2021/06/30 08:02:47;;;;;;;4.97;4.60;;;;;;;23.47;71.78;100853.63;4920462;27;102790;-66
2021/06/30 08:05:15;;;;;;;4.70;4.40;;;;;;;23.50;71.61;100852.94;4916918;27;102824;-66
2021/06/30 08:07:41;;;;;;;4.28;3.97;;;;;;;23.48;71.73;100848.91;4924177;27;104198;-66
2021/06/30 08:10:09;;;;;;;4.72;4.43;;;;;;;23.50;71.57;100852.13;4926965;27;102637;-66
2021/06/30 08:12:36;;;;;;;4.37;4.07;;;;;;;23.50;71.66;100849.34;4940674;27;102511;-66
2021/06/30 08:15:04;;;;;;;4.72;4.43;;;;;;;23.49;71.54;100847.75;4944898;27;102599;-65
2021/06/30 08:17:31;;;;;;;4.97;4.57;;;;;;;23.49;71.71;100851.31;4933763;27;104151;-66
2021/06/30 08:19:59;;;;;;;4.57;4.27;;;;;;;23.50;71.50;100847.38;4934404;27;102666;-66
2021/06/30 08:22:28;;;;;;;4.72;4.32;;;;;;;23.50;71.34;100846.56;4932927;27;103751;-66
2021/06/30 08:24:56;;;;;;;5.10;4.70;;;;;;;23.50;71.59;100843.78;4935593;27;102684;-66
2021/06/30 08:27:23;;;;;;;4.55;4.15;;;;;;;23.51;71.55;100848.19;4935054;27;103953;-66
2021/06/30 08:29:50;;;;;;;4.43;4.13;;;;;;;23.50;71.47;100841.81;4934729;27;102734;-66
2021/06/30 08:32:18;;;;;;;4.80;4.50;;;;;;;23.48;71.39;100844.16;4932942;27;104303;-66
2021/06/30 08:34:44;;;;;;;4.78;4.40;;;;;;;23.49;71.37;100839.41;4943142;27;104073;-66
2021/06/30 08:37:12;;;;;;;5.15;4.75;;;;;;;23.50;71.41;100841.81;4942278;27;103964;-66
2021/06/30 08:39:40;;;;;;;5.45;5.05;;;;;;;23.50;71.72;100841.81;4944533;27;102505;-66
2021/06/30 08:42:06;;;;;;;4.63;4.23;;;;;;;23.51;71.56;100839.84;4942001;27;102727;-66
2021/06/30 08:44:33;;;;;;;4.45;4.15;;;;;;;23.52;71.64;100840.69;4936498;27;102627;-65
2021/06/30 08:47:01;;;;;;;4.72;4.43;;;;;;;23.52;71.46;100841.47;4935505;27;103889;-66
2021/06/30 08:49:28;;;;;;;5.10;4.70;;;;;;;23.52;71.51;100841.47;4938869;27;102068;-66
2021/06/30 08:51:57;;;;;;;5.30;4.90;;;;;;;23.53;71.66;100829.19;4941584;27;102637;-66
2021/06/30 08:54:24;;;;;;;4.88;4.47;;;;;;;23.54;71.61;100839.13;4934065;27;103054;-66
2021/06/30 08:56:54;;;;;;;4.55;4.25;;;;;;;23.53;71.56;100831.97;4940437;28;103990;-66
2021/06/30 08:59:21;;;;;;;4.30;4.00;;;;;;;23.57;71.89;100834.84;4944528;27;102656;-66
2021/06/30 09:01:48;;;;;;;8.00;7.30;;;;;;;23.81;71.88;100829.16;4939102;27;101957;-67
2021/06/30 09:04:15;;;;;;;13.07;8.38;;;;;;;24.00;73.12;100830.41;4941741;27;102281;-64
2021/06/30 09:06:42;;;;;;;12.52;8.73;;;;;;;24.15;73.29;100830.38;4945168;27;103675;-64
2021/06/30 09:09:12;;;;;;;15.93;9.05;;;;;;;24.18;72.97;100826.88;4942011;27;102939;-63
2021/06/30 09:11:39;;;;;;;13.60;8.25;;;;;;;24.14;72.60;100826.00;4948486;27;102652;-62
2021/06/30 09:14:16;;;;;;;13.63;8.73;;;;;;;24.06;72.25;100829.78;4943264;27;102693;-63
2021/06/30 09:20:05;;;;;;;11.00;8.57;;;;;;;23.91;71.63;100828.63;4939392;27;102628;-62
2021/06/30 09:22:40;;;;;;;13.95;7.95;;;;;;;23.86;71.66;100819.75;4944723;27;102395;-63
2021/06/30 09:25:08;;;;;;;9.32;7.57;;;;;;;23.84;71.68;100819.28;4937197;27;102767;-63
2021/06/30 09:27:43;;;;;;;9.25;8.43;;;;;;;23.82;71.41;100814.09;4948059;27;102844;-62
2021/06/30 09:30:13;;;;;;;10.00;8.07;;;;;;;23.82;71.24;100813.28;4945359;27;102603;-63
2021/06/30 09:33:02;;;;;;;8.68;7.97;;;;;;;23.80;71.39;100810.03;4941994;27;102395;-62
2021/06/30 09:35:29;;;;;;;;;;;;;;;23.77;71.38;100810.78;4942095;27;102107;-62
2021/06/30 09:37:56;;;;;;;10.10;8.52;;;;;;;23.78;71.53;100818.75;4954095;27;103846;-62
2021/06/30 09:40:42;;;;;;;9.07;8.27;;;;;;;23.74;71.47;100813.09;4938745;27;102455;-62
2021/06/30 09:43:22;;;;;;;8.68;7.88;;;;;;;23.72;71.60;100815.44;4943366;27;102535;-62
2021/06/30 09:45:51;;;;;;;9.32;8.35;;;;;;;23.72;71.46;100812.66;4945227;27;102859;-63
2021/06/30 09:48:27;;;;;;;;;;;;;;;23.71;71.37;100813.03;4954317;27;104842;-62
2021/06/30 09:50:55;;;;;;;8.85;8.15;;;;;;;23.69;71.54;100804.22;4941742;27;102577;-63
2021/06/30 09:53:32;;;;;;;8.70;7.97;;;;;;;23.70;71.66;100795.53;4940537;27;102601;-62
2021/06/30 09:56:09;;;;;;;9.10;8.32;;;;;;;23.69;71.57;100793.94;4947769;27;102945;-62
2021/06/30 09:58:35;;;;;;;8.40;7.70;;;;;;;23.69;71.17;100793.09;4947387;27;103872;-62
2021/06/30 10:01:16;;;;;;;9.50;8.50;;;;;;;23.68;71.90;100795.09;4944509;27;102325;-63
2021/06/30 10:03:43;;;;;;;8.50;7.68;;;;;;;23.66;71.58;100788.25;4945453;28;102022;-63
2021/06/30 10:06:29;;;;;;;8.95;8.15;;;;;;;23.66;71.54;100783.50;4946641;28;102758;-60
2021/06/30 10:08:57;;;;;;;9.02;7.57;;;;;;;23.67;71.53;100785.16;4948311;27;103860;-60
2021/06/30 10:11:24;;;;;;;9.23;8.43;;;;;;;23.66;71.51;100788.25;4947878;27;102153;-60
2021/06/30 10:13:51;;;;;;;8.70;8.00;;;;;;;23.63;71.75;100788.97;4939778;27;102176;-60
2021/06/30 10:16:20;;;;;;;8.68;7.88;;;;;;;23.64;71.55;100774.72;4942638;27;102385;-60
2021/06/30 10:18:50;;;;;;;8.75;8.05;;;;;;;23.62;71.73;100777.06;4951925;27;104447;-60
2021/06/30 10:21:18;;;;;;;8.85;8.05;;;;;;;23.59;71.68;100779.75;4953916;27;102226;-60
2021/06/30 10:23:46;;;;;;;8.40;7.63;;;;;;;23.59;71.61;100777.78;4941577;27;102369;-60
2021/06/30 10:26:15;;;;;;;8.15;7.55;;;;;;;23.58;71.51;100776.13;4938594;27;102664;-60
2021/06/30 10:28:42;;;;;;;8.65;8.00;;;;;;;23.56;71.92;100766.56;4952580;27;103595;-61
2021/06/30 10:31:09;;;;;;;8.18;7.38;;;;;;;23.57;71.78;100770.94;4944836;27;102133;-60
2021/06/30 10:33:39;;;;;;;8.50;7.72;;;;;;;23.56;71.69;100767.38;4934733;27;102952;-60
2021/06/30 10:36:07;;;;;;;9.07;8.27;;;;;;;23.56;71.78;100758.22;4933754;27;103650;-60
2021/06/30 10:38:54;;;;;;;8.18;7.47;;;;;;;23.56;71.50;100761.81;4950170;27;103910;-60
2021/06/30 10:41:41;;;;;;;8.35;7.65;;;;;;;23.55;71.70;100754.66;4952893;27;102345;-60
2021/06/30 10:44:16;;;;;;;8.98;8.27;;;;;;;23.55;71.90;100751.03;4931677;27;104625;-60
2021/06/30 10:46:43;;;;;;;8.57;7.90;;;;;;;23.54;71.56;100753.03;4945055;27;102371;-60
2021/06/30 10:49:23;;;;;;;9.35;8.38;;;;;;;23.54;71.60;100761.34;4943060;27;104039;-61
2021/06/30 10:51:51;;;;;;;8.45;7.65;;;;;;;23.55;71.94;100753.81;4940000;27;102668;-61
2021/06/30 10:54:41;;;;;;;7.73;7.13;;;;;;;23.57;71.85;100755.09;4937723;28;104011;-61
2021/06/30 10:57:29;;;;;;;7.93;7.30;;;;;;;23.57;71.75;100763.41;4987980;27;102478;-61
2021/06/30 11:00:22;;;;;;;7.88;7.28;;;;;;;23.57;71.23;100759.84;4943962;27;103911;-62
2021/06/30 11:03:24;;;;;;;8.48;7.78;;;;;;;23.57;71.66;100763.41;4918638;27;102306;-63
2021/06/30 11:05:54;;;;;;;8.80;8.05;;;;;;;23.57;71.52;100757.88;4938908;27;102405;-61
2021/06/30 11:08:42;;;;;;;7.90;7.32;;;;;;;23.56;71.63;100756.25;4947713;27;102522;-62
2021/06/30 11:11:10;;;;;;;8.57;7.87;;;;;;;23.54;71.60;100758.56;4950924;27;103866;-62
2021/06/30 11:13:58;;;;;;;8.10;7.50;;;;;;;23.56;71.58;100755.47;4940505;27;102427;-61
2021/06/30 11:16:58;;;;;;;8.40;7.60;;;;;;;23.55;71.68;100753.81;4940064;27;102552;-62
2021/06/30 11:19:44;;;;;;;7.82;7.22;;;;;;;23.54;71.61;100750.25;4925574;28;102992;-62
2021/06/30 11:22:30;;;;;;;8.50;7.80;;;;;;;23.53;71.49;100751.41;4920519;28;103943;-61
2021/06/30 11:24:59;;;;;;;8.82;8.07;;;;;;;23.55;71.81;100759.38;4939987;27;102730;-61
2021/06/30 11:27:43;;;;;;;11.32;8.18;;;;;;;23.57;71.65;100751.50;4942817;27;102538;-61
2021/06/30 11:30:12;;;;;;;9.07;7.95;;;;;;;23.54;71.75;100747.47;4947236;27;102371;-61
2021/06/30 11:32:47;;;;;;;8.15;7.35;;;;;;;23.56;71.67;100759.03;4942279;27;104191;-62
2021/06/30 11:35:28;;;;;;;429.83;31.27;;;;;;;23.57;71.84;100755.09;4942373;27;102602;-61
2021/06/30 11:38:00;;;;;;;8.95;8.10;;;;;;;23.58;71.49;100751.13;4942915;27;102704;-61